Time;durP1;ratioP1;P1;durP2;ratioP2;P2;SDS_P1;SDS_P2;PMS_P1;PMS_P2;Temp;Humidity;BMP_temperature;BMP_pressure;BME280_temperature;BME280_humidity;BME280_pressure;Samples;Min_cycle;Max_cycle;Signal;HPM_P1;HPM_P2
2023/08/14 00:02:06;;;;;;;3.67;1.40;;;;;;;;;;5036414;28;20217;-79
2023/08/14 00:04:32;;;;;;;4.87;2.00;;;;;;;;;;5036422;28;20203;-80
2023/08/14 00:06:58;;;;;;;4.10;1.83;;;;;;;;;;5036509;28;20416;-79
2023/08/14 00:09:24;;;;;;;4.03;2.10;;;;;;;;;;5036378;28;20798;-79
2023/08/14 00:11:50;;;;;;;4.53;2.20;;;;;;;;;;5036026;28;20179;-79
2023/08/14 00:14:16;;;;;;;4.80;2.17;;;;;;;;;;5036317;28;20172;-79
2023/08/14 00:16:42;;;;;;;2.90;1.70;;;;;;;;;;5036237;28;20657;-79
2023/08/14 00:19:08;;;;;;;5.57;2.70;;;;;;;;;;5036264;28;20182;-79
2023/08/14 00:21:34;;;;;;;3.47;1.33;;;;;;;;;;5036182;28;20424;-79
2023/08/14 00:24:00;;;;;;;4.80;2.00;;;;;;;;;;5036109;28;21033;-79
2023/08/14 00:26:26;;;;;;;5.80;1.87;;;;;;;;;;5035820;28;20172;-79
2023/08/14 00:28:52;;;;;;;1.93;1.07;;;;;;;;;;5035995;28;20540;-79
2023/08/14 00:31:18;;;;;;;3.20;1.33;;;;;;;;;;5035962;28;20409;-79
2023/08/14 00:33:44;;;;;;;5.20;2.10;;;;;;;;;;5036016;28;20167;-79
2023/08/14 00:36:10;;;;;;;4.50;1.13;;;;;;;;;;5046319;28;20433;-79
2023/08/14 00:38:35;;;;;;;3.23;1.47;;;;;;;;;;5037646;28;20916;-79
2023/08/14 00:41:01;;;;;;;2.90;1.10;;;;;;;;;;5035572;28;20173;-79
2023/08/14 00:43:31;;;;;;;2.90;0.90;;;;;;;;;;5033271;28;20183;-79
2023/08/14 00:45:57;;;;;;;2.77;1.00;;;;;;;;;;5035728;28;20172;-79
2023/08/14 00:48:24;;;;;;;4.53;1.43;;;;;;;;;;5035579;28;20418;-79
2023/08/14 00:50:50;;;;;;;2.73;1.30;;;;;;;;;;5035600;28;20427;-80
2023/08/14 00:53:18;;;;;;;3.37;1.47;;;;;;;;;;5035553;28;20908;-79
2023/08/14 00:55:45;;;;;;;2.07;1.20;;;;;;;;;;5035146;28;20415;-79
2023/08/14 00:58:11;;;;;;;2.87;1.13;;;;;;;;;;5035478;28;20470;-79
2023/08/14 01:00:37;;;;;;;2.40;1.33;;;;;;;;;;5035276;28;20424;-79
2023/08/14 01:03:03;;;;;;;4.33;1.17;;;;;;;;;;5035188;28;20467;-80
2023/08/14 01:05:29;;;;;;;4.90;1.87;;;;;;;;;;5035272;28;20521;-79
2023/08/14 01:07:56;;;;;;;5.03;0.97;;;;;;;;;;5035300;28;20415;-79
2023/08/14 01:10:22;;;;;;;2.70;1.40;;;;;;;;;;5034880;28;20423;-79
2023/08/14 01:12:48;;;;;;;3.37;1.43;;;;;;;;;;5035156;28;20420;-79
2023/08/14 01:15:18;;;;;;;2.33;0.73;;;;;;;;;;5033904;28;20503;-79
2023/08/14 01:17:48;;;;;;;2.10;1.10;;;;;;;;;;5035124;28;20179;-80
2023/08/14 01:20:15;;;;;;;2.07;0.90;;;;;;;;;;5035129;28;20420;-79
2023/08/14 01:23:00;;;;;;;1.97;0.90;;;;;;;;;;5035077;28;20411;-79
2023/08/14 01:25:33;;;;;;;3.63;1.27;;;;;;;;;;5034599;28;20528;-79
2023/08/14 01:27:59;;;;;;;4.30;1.27;;;;;;;;;;5034994;28;20436;-79
2023/08/14 01:30:26;;;;;;;2.77;1.20;;;;;;;;;;5033736;28;20472;-79
2023/08/14 01:32:52;;;;;;;6.13;1.40;;;;;;;;;;5033609;28;20426;-79
2023/08/14 01:35:19;;;;;;;2.33;1.13;;;;;;;;;;5034842;28;20410;-79
2023/08/14 01:38:09;;;;;;;2.93;1.43;;;;;;;;;;5034702;28;20412;-79
2023/08/14 01:40:49;;;;;;;3.17;1.40;;;;;;;;;;5034325;28;20817;-79
2023/08/14 01:43:19;;;;;;;4.17;1.37;;;;;;;;;;5034714;28;20743;-79
2023/08/14 01:45:45;;;;;;;5.10;1.37;;;;;;;;;;5034528;28;20462;-79
2023/08/14 01:48:15;;;;;;;3.80;1.23;;;;;;;;;;5034540;28;20423;-79
2023/08/14 01:50:41;;;;;;;2.27;1.10;;;;;;;;;;5034473;28;20177;-79
2023/08/14 01:53:07;;;;;;;3.93;1.80;;;;;;;;;;5033127;28;20407;-80
2023/08/14 01:55:33;;;;;;;6.30;1.63;;;;;;;;;;5032490;28;20925;-80
2023/08/14 01:57:59;;;;;;;6.30;1.70;;;;;;;;;;5034267;28;20213;-79
2023/08/14 02:00:26;;;;;;;3.90;1.43;;;;;;;;;;5033016;28;20509;-79
2023/08/14 02:02:52;;;;;;;5.23;1.40;;;;;;;;;;5033999;28;20502;-79
2023/08/14 02:05:18;;;;;;;2.40;0.93;;;;;;;;;;5034204;28;20518;-79
2023/08/14 02:07:44;;;;;;;3.87;1.00;;;;;;;;;;5032871;28;20277;-79
2023/08/14 02:10:10;;;;;;;4.93;1.90;;;;;;;;;;5033807;28;20539;-79
2023/08/14 02:12:36;;;;;;;3.00;1.40;;;;;;;;;;5034061;28;20626;-79
2023/08/14 02:15:02;;;;;;;3.30;1.27;;;;;;;;;;5034043;28;20473;-79
2023/08/14 02:17:30;;;;;;;3.47;0.80;;;;;;;;;;5033981;28;20188;-79
2023/08/14 02:19:56;;;;;;;2.23;1.40;;;;;;;;;;5033916;28;20418;-79
2023/08/14 02:22:22;;;;;;;3.07;1.60;;;;;;;;;;5033920;28;20775;-79
2023/08/14 02:24:48;;;;;;;2.57;1.40;;;;;;;;;;5033562;28;20476;-79
2023/08/14 02:27:14;;;;;;;5.80;1.20;;;;;;;;;;5033797;28;20408;-79
2023/08/14 02:29:40;;;;;;;1.90;1.13;;;;;;;;;;5033798;28;20184;-79
2023/08/14 02:32:06;;;;;;;3.27;1.80;;;;;;;;;;5033673;28;20216;-79
2023/08/14 02:34:56;;;;;;;2.67;1.03;;;;;;;;;;5033637;28;20422;-79
2023/08/14 02:37:22;;;;;;;2.77;1.50;;;;;;;;;;5032399;28;20493;-79
2023/08/14 02:39:48;;;;;;;4.77;1.50;;;;;;;;;;5033233;28;20752;-79
2023/08/14 02:42:15;;;;;;;2.87;1.17;;;;;;;;;;5034791;28;20418;-79
2023/08/14 02:44:41;;;;;;;4.70;1.40;;;;;;;;;;5037795;28;20467;-79
2023/08/14 02:47:07;;;;;;;2.27;1.30;;;;;;;;;;5033536;28;20887;-79
2023/08/14 02:49:33;;;;;;;4.03;1.60;;;;;;;;;;5033454;28;20414;-79
2023/08/14 02:52:03;;;;;;;5.07;1.60;;;;;;;;;;5033394;28;20932;-79
2023/08/14 02:54:29;;;;;;;2.10;1.50;;;;;;;;;;5035305;28;20986;-79
2023/08/14 02:56:58;;;;;;;9.20;2.63;;;;;;;;;;5072873;28;20410;-79
2023/08/14 02:59:24;;;;;;;3.63;2.03;;;;;;;;;;5073161;28;20420;-79
2023/08/14 03:01:53;;;;;;;3.63;1.80;;;;;;;;;;5072967;28;20402;-79
2023/08/14 03:04:18;;;;;;;5.90;2.07;;;;;;;;;;5073141;28;20965;-79
2023/08/14 03:06:47;;;;;;;4.70;3.27;;;;;;;;;;5072567;28;20425;-79
2023/08/14 03:09:13;;;;;;;3.80;2.27;;;;;;;;;;5071611;28;20174;-79
2023/08/14 03:11:39;;;;;;;2.47;1.60;;;;;;;;;;5072293;28;20433;-79
2023/08/14 03:14:05;;;;;;;3.60;1.60;;;;;;;;;;5072820;28;20191;-79
2023/08/14 03:16:31;;;;;;;3.30;1.97;;;;;;;;;;5072511;28;20422;-79
2023/08/14 03:18:57;;;;;;;3.50;1.73;;;;;;;;;;5072598;28;20420;-79
2023/08/14 03:21:23;;;;;;;5.20;1.70;;;;;;;;;;5072703;28;20410;-79
2023/08/14 03:23:50;;;;;;;2.60;1.20;;;;;;;;;;5061551;28;20276;-79
2023/08/14 03:26:16;;;;;;;8.37;2.40;;;;;;;;;;5058127;28;20436;-80
2023/08/14 03:28:42;;;;;;;2.20;1.30;;;;;;;;;;5038431;28;20426;-80
2023/08/14 03:31:08;;;;;;;3.67;1.80;;;;;;;;;;5042122;28;20415;-80
2023/08/14 03:33:33;;;;;;;3.13;1.53;;;;;;;;;;5051363;28;20396;-80
2023/08/14 03:35:59;;;;;;;2.83;1.27;;;;;;;;;;5043574;28;20428;-80
2023/08/14 03:38:25;;;;;;;4.63;2.07;;;;;;;;;;5053223;28;20799;-80
2023/08/14 03:40:51;;;;;;;4.20;1.60;;;;;;;;;;5052288;28;20409;-81
2023/08/14 03:43:17;;;;;;;2.70;1.47;;;;;;;;;;5052504;28;20410;-81
2023/08/14 03:45:43;;;;;;;3.33;1.83;;;;;;;;;;5052297;28;20510;-81
2023/08/14 03:48:09;;;;;;;3.13;1.43;;;;;;;;;;5052302;28;20650;-81
2023/08/14 03:50:35;;;;;;;4.27;1.43;;;;;;;;;;5052389;28;20229;-81
2023/08/14 03:53:01;;;;;;;3.40;1.60;;;;;;;;;;5052548;28;20175;-81
2023/08/14 03:55:27;;;;;;;4.23;1.57;;;;;;;;;;5052041;28;20181;-80
2023/08/14 03:57:56;;;;;;;3.30;1.83;;;;;;;;;;5065737;28;20490;-81
2023/08/14 04:00:22;;;;;;;2.47;1.90;;;;;;;;;;5072369;28;20839;-81
2023/08/14 04:02:48;;;;;;;3.43;1.70;;;;;;;;;;5072121;28;20814;-81
2023/08/14 04:05:14;;;;;;;3.87;2.33;;;;;;;;;;5072255;28;20467;-81
2023/08/14 04:07:40;;;;;;;3.33;2.07;;;;;;;;;;5072349;28;20410;-81
2023/08/14 04:10:07;;;;;;;5.20;2.30;;;;;;;;;;5071653;28;20409;-81
2023/08/14 04:12:33;;;;;;;2.70;1.47;;;;;;;;;;5070791;28;20420;-81
2023/08/14 04:15:12;;;;;;;3.47;1.00;;;;;;;;;;5072124;28;20442;-81
2023/08/14 04:17:38;;;;;;;3.03;1.40;;;;;;;;;;5072551;28;21034;-81
2023/08/14 04:20:04;;;;;;;4.90;1.63;;;;;;;;;;5063169;28;20431;-81
2023/08/14 04:22:30;;;;;;;4.03;2.50;;;;;;;;;;5044847;28;20177;-81
2023/08/14 04:24:56;;;;;;;4.27;2.20;;;;;;;;;;5034953;28;20464;-80
2023/08/14 04:27:22;;;;;;;3.30;1.70;;;;;;;;;;5047222;28;20186;-80
2023/08/14 04:29:48;;;;;;;4.93;2.63;;;;;;;;;;5054829;28;20435;-80
2023/08/14 04:32:14;;;;;;;4.10;1.57;;;;;;;;;;5054788;28;20235;-80
2023/08/14 04:34:40;;;;;;;4.80;2.23;;;;;;;;;;5055752;28;20445;-81
2023/08/14 04:37:08;;;;;;;5.00;1.57;;;;;;;;;;5055815;28;20412;-80
2023/08/14 04:39:34;;;;;;;6.70;1.97;;;;;;;;;;5055357;28;20409;-81
2023/08/14 04:42:00;;;;;;;4.40;2.30;;;;;;;;;;5055764;28;20472;-81
2023/08/14 04:44:26;;;;;;;5.63;1.70;;;;;;;;;;5055574;28;20668;-81
2023/08/14 04:46:51;;;;;;;4.50;1.90;;;;;;;;;;5054315;28;20223;-81
2023/08/14 04:49:17;;;;;;;6.33;1.87;;;;;;;;;;5055891;28;20611;-81
2023/08/14 04:51:44;;;;;;;2.53;2.10;;;;;;;;;;5055565;28;20182;-81
2023/08/14 04:54:10;;;;;;;3.57;2.10;;;;;;;;;;5055530;28;20449;-81
2023/08/14 04:56:36;;;;;;;3.23;1.77;;;;;;;;;;5055070;28;20433;-81
2023/08/14 04:59:01;;;;;;;4.10;2.10;;;;;;;;;;5055425;28;20203;-81
2023/08/14 05:01:27;;;;;;;3.27;1.20;;;;;;;;;;5055373;28;20785;-81
2023/08/14 05:03:53;;;;;;;6.77;3.40;;;;;;;;;;5053804;28;20226;-81
2023/08/14 05:06:19;;;;;;;8.30;3.03;;;;;;;;;;5055296;28;20181;-81
2023/08/14 05:08:45;;;;;;;4.83;2.70;;;;;;;;;;5055168;28;20650;-81
2023/08/14 05:11:12;;;;;;;5.60;2.80;;;;;;;;;;5054796;28;20418;-80
2023/08/14 05:13:39;;;;;;;5.60;3.20;;;;;;;;;;5055210;28;20200;-82
2023/08/14 05:16:05;;;;;;;3.23;2.60;;;;;;;;;;5055060;28;20420;-81
2023/08/14 05:18:31;;;;;;;6.67;3.43;;;;;;;;;;5055018;28;20529;-80
2023/08/14 05:20:57;;;;;;;5.93;2.93;;;;;;;;;;5048565;28;20188;-78
2023/08/14 05:23:23;;;;;;;6.60;3.37;;;;;;;;;;5045417;28;20185;-78
2023/08/14 05:25:49;;;;;;;5.60;3.30;;;;;;;;;;5041018;28;20479;-78
2023/08/14 05:28:15;;;;;;;6.17;3.20;;;;;;;;;;5034941;28;20168;-78
2023/08/14 05:30:47;;;;;;;5.60;3.20;;;;;;;;;;5034331;28;20419;-79
2023/08/14 05:33:13;;;;;;;6.93;3.83;;;;;;;;;;5033573;28;20209;-78
2023/08/14 05:35:39;;;;;;;7.03;4.07;;;;;;;;;;5034792;28;20424;-79
2023/08/14 05:38:05;;;;;;;5.53;3.57;;;;;;;;;;5033492;28;20766;-79
2023/08/14 05:40:31;;;;;;;6.77;4.00;;;;;;;;;;5034349;28;20969;-80
2023/08/14 05:43:04;;;;;;;6.37;4.40;;;;;;;;;;5034697;28;20418;-79
2023/08/14 05:45:42;;;;;;;7.27;3.37;;;;;;;;;;5034502;28;20502;-79
2023/08/14 05:48:08;;;;;;;6.13;3.23;;;;;;;;;;5034656;28;20414;-80
2023/08/14 05:50:35;;;;;;;6.17;3.00;;;;;;;;;;5034444;28;20502;-79
2023/08/14 05:53:03;;;;;;;5.17;3.50;;;;;;;;;;5034396;28;20421;-79
2023/08/14 05:55:30;;;;;;;5.03;3.10;;;;;;;;;;5032772;28;20424;-80
2023/08/14 05:57:56;;;;;;;7.10;3.13;;;;;;;;;;5034438;28;20412;-80
2023/08/14 06:00:24;;;;;;;3.53;2.20;;;;;;;;;;5034350;28;20415;-79
2023/08/14 06:02:50;;;;;;;4.53;2.20;;;;;;;;;;5034115;28;20460;-79
2023/08/14 06:05:16;;;;;;;6.87;2.50;;;;;;;;;;5034223;28;20852;-80
2023/08/14 06:07:42;;;;;;;4.27;2.00;;;;;;;;;;5034284;28;20177;-79
2023/08/14 06:10:08;;;;;;;5.77;2.07;;;;;;;;;;5033802;28;20200;-79
2023/08/14 06:12:34;;;;;;;4.03;2.03;;;;;;;;;;5034020;28;20650;-79
2023/08/14 06:15:00;;;;;;;4.73;2.10;;;;;;;;;;5034091;28;20413;-80
2023/08/14 06:17:27;;;;;;;5.47;2.53;;;;;;;;;;5032710;28;20907;-80
2023/08/14 06:19:53;;;;;;;6.87;2.33;;;;;;;;;;5033938;28;20768;-80
2023/08/14 06:22:19;;;;;;;5.43;1.77;;;;;;;;;;5033923;28;20511;-80
2023/08/14 06:24:45;;;;;;;3.23;2.23;;;;;;;;;;5033424;28;20468;-79
2023/08/14 06:27:11;;;;;;;3.63;1.57;;;;;;;;;;5033884;28;20409;-81
2023/08/14 06:29:37;;;;;;;4.23;1.97;;;;;;;;;;5033797;28;20775;-82
2023/08/14 06:32:05;;;;;;;3.53;1.93;;;;;;;;;;5036993;28;20182;-82
2023/08/14 06:34:31;;;;;;;3.53;2.13;;;;;;;;;;5047550;28;20920;-82
2023/08/14 06:36:57;;;;;;;7.00;1.97;;;;;;;;;;5039440;28;20443;-80
2023/08/14 06:39:23;;;;;;;5.40;2.70;;;;;;;;;;5032775;28;20170;-80
2023/08/14 06:41:49;;;;;;;3.70;1.70;;;;;;;;;;5032732;28;20654;-80
2023/08/14 06:44:15;;;;;;;4.93;2.17;;;;;;;;;;5033279;28;20484;-80
2023/08/14 06:46:41;;;;;;;4.40;2.27;;;;;;;;;;5033944;28;20181;-80
2023/08/14 06:49:07;;;;;;;3.03;2.13;;;;;;;;;;5040590;28;20218;-80
2023/08/14 06:51:33;;;;;;;2.90;1.80;;;;;;;;;;5042684;28;20440;-80
2023/08/14 06:53:59;;;;;;;3.90;2.97;;;;;;;;;;5047304;28;20856;-79
2023/08/14 06:56:25;;;;;;;3.23;2.37;;;;;;;;;;5053044;28;20173;-80
2023/08/14 06:58:51;;;;;;;3.40;2.10;;;;;;;;;;5053051;28;20196;-81
2023/08/14 07:01:17;;;;;;;4.77;2.00;;;;;;;;;;5052842;28;20412;-81
2023/08/14 07:03:43;;;;;;;5.20;1.73;;;;;;;;;;5053181;28;20229;-81
2023/08/14 07:06:09;;;;;;;3.70;1.60;;;;;;;;;;5072612;28;20908;-81
2023/08/14 07:08:35;;;;;;;5.23;2.13;;;;;;;;;;5072926;28;20400;-81
2023/08/14 07:11:01;;;;;;;5.50;1.77;;;;;;;;;;5072454;28;20426;-80
2023/08/14 07:13:27;;;;;;;3.40;1.73;;;;;;;;;;5066003;28;20261;-80
2023/08/14 07:15:52;;;;;;;6.03;2.80;;;;;;;;;;5051628;28;20165;-81
2023/08/14 07:18:19;;;;;;;3.00;1.53;;;;;;;;;;5051853;28;20206;-81
2023/08/14 07:20:45;;;;;;;4.20;1.93;;;;;;;;;;5052187;28;20176;-82
2023/08/14 07:23:12;;;;;;;2.93;1.93;;;;;;;;;;5052378;28;20957;-81
2023/08/14 07:25:38;;;;;;;2.60;1.33;;;;;;;;;;5050739;28;20474;-81
2023/08/14 07:28:04;;;;;;;1.67;1.50;;;;;;;;;;5050897;28;20412;-81
2023/08/14 07:30:30;;;;;;;5.33;1.83;;;;;;;;;;5052319;28;20805;-81
2023/08/14 07:32:56;;;;;;;3.87;1.90;;;;;;;;;;5052127;28;20417;-81
2023/08/14 07:35:22;;;;;;;4.20;2.20;;;;;;;;;;5052336;28;20165;-81
2023/08/14 07:37:48;;;;;;;3.40;1.33;;;;;;;;;;5052311;28;20184;-81
2023/08/14 07:40:14;;;;;;;6.73;1.97;;;;;;;;;;5052021;28;20256;-81
2023/08/14 07:42:43;;;;;;;4.53;1.80;;;;;;;;;;5056865;28;20412;-81
2023/08/14 07:45:09;;;;;;;3.77;1.80;;;;;;;;;;5051865;28;20205;-82
2023/08/14 07:47:35;;;;;;;4.27;2.17;;;;;;;;;;5052193;28;20412;-82
2023/08/14 07:50:04;;;;;;;7.00;1.73;;;;;;;;;;5051989;28;20978;-81
2023/08/14 07:52:30;;;;;;;3.80;1.30;;;;;;;;;;5050479;28;20178;-81
2023/08/14 07:54:57;;;;;;;4.30;1.40;;;;;;;;;;5055789;28;20404;-81
2023/08/14 07:57:23;;;;;;;4.17;1.77;;;;;;;;;;5055921;28;20502;-81
2023/08/14 07:59:49;;;;;;;2.00;1.37;;;;;;;;;;5056070;28;20423;-81
2023/08/14 08:02:15;;;;;;;3.50;1.63;;;;;;;;;;5054518;28;20812;-82
2023/08/14 08:04:41;;;;;;;3.93;1.60;;;;;;;;;;5055944;28;20455;-81
2023/08/14 08:07:07;;;;;;;4.93;1.40;;;;;;;;;;5055874;28;20176;-82
2023/08/14 08:09:33;;;;;;;3.37;1.57;;;;;;;;;;5055533;28;20416;-81
2023/08/14 08:11:59;;;;;;;2.80;1.50;;;;;;;;;;5055836;28;20900;-81
2023/08/14 08:14:25;;;;;;;3.30;2.00;;;;;;;;;;5055738;28;20219;-81
2023/08/14 08:16:51;;;;;;;4.53;1.90;;;;;;;;;;5055650;28;20181;-81
2023/08/14 08:19:18;;;;;;;3.53;2.00;;;;;;;;;;5056007;28;20431;-81
2023/08/14 08:21:43;;;;;;;3.40;1.73;;;;;;;;;;5056111;28;20236;-82
2023/08/14 08:24:09;;;;;;;3.73;1.50;;;;;;;;;;5055767;28;20909;-82
2023/08/14 08:26:36;;;;;;;4.03;1.30;;;;;;;;;;5056091;28;20248;-82
2023/08/14 08:29:02;;;;;;;9.63;2.20;;;;;;;;;;5055897;28;20236;-82
2023/08/14 08:31:28;;;;;;;4.47;2.03;;;;;;;;;;5055944;28;20458;-81
2023/08/14 08:33:54;;;;;;;2.40;2.13;;;;;;;;;;5055821;28;20416;-81
2023/08/14 08:36:20;;;;;;;4.57;2.20;;;;;;;;;;5055729;28;20197;-81
2023/08/14 08:38:46;;;;;;;3.43;1.73;;;;;;;;;;5055375;28;20268;-81
2023/08/14 08:41:13;;;;;;;4.57;2.27;;;;;;;;;;5055580;28;20185;-81
2023/08/14 08:43:40;;;;;;;3.23;1.40;;;;;;;;;;5055587;28;20425;-81
2023/08/14 08:46:09;;;;;;;8.93;2.10;;;;;;;;;;5055597;28;20507;-81
2023/08/14 08:48:37;;;;;;;5.47;1.67;;;;;;;;;;5055580;28;20495;-81
2023/08/14 08:51:03;;;;;;;5.60;1.87;;;;;;;;;;5055484;28;20741;-81
2023/08/14 08:53:29;;;;;;;5.87;1.57;;;;;;;;;;5055424;28;20408;-82
2023/08/14 08:55:55;;;;;;;4.10;2.20;;;;;;;;;;5054836;28;21059;-82
2023/08/14 08:58:22;;;;;;;2.83;1.57;;;;;;;;;;5055347;28;20404;-82
2023/08/14 09:00:48;;;;;;;7.60;2.10;;;;;;;;;;5055416;28;20494;-82
2023/08/14 09:03:14;;;;;;;4.50;1.70;;;;;;;;;;5055059;28;20825;-81
2023/08/14 09:05:41;;;;;;;3.27;1.60;;;;;;;;;;5054297;28;20440;-81
2023/08/14 09:08:08;;;;;;;4.50;1.50;;;;;;;;;;5055270;28;20166;-81
2023/08/14 09:10:34;;;;;;;3.47;1.53;;;;;;;;;;5054802;28;20420;-81
2023/08/14 09:13:00;;;;;;;5.63;1.30;;;;;;;;;;5055060;28;20416;-81
2023/08/14 09:15:26;;;;;;;3.60;1.50;;;;;;;;;;5055027;28;20478;-81
2023/08/14 09:17:53;;;;;;;1.77;1.40;;;;;;;;;;5055121;28;20766;-81
2023/08/14 09:20:20;;;;;;;3.30;1.53;;;;;;;;;;5055019;28;20173;-81
2023/08/14 09:22:46;;;;;;;4.77;1.47;;;;;;;;;;5054923;28;20778;-81
2023/08/14 09:25:12;;;;;;;2.17;1.37;;;;;;;;;;5054483;28;20412;-81
2023/08/14 09:27:38;;;;;;;4.30;2.50;;;;;;;;;;5054772;28;20523;-81
2023/08/14 09:30:06;;;;;;;4.87;1.97;;;;;;;;;;5054622;28;20178;-81
2023/08/14 09:32:32;;;;;;;4.40;1.40;;;;;;;;;;5051973;28;20180;-81
2023/08/14 09:34:59;;;;;;;6.57;1.87;;;;;;;;;;5054573;28;20482;-81
2023/08/14 09:37:25;;;;;;;3.60;1.77;;;;;;;;;;5054693;28;20415;-81
2023/08/14 09:40:13;;;;;;;5.80;1.90;;;;;;;;;;5054417;28;20423;-81
2023/08/14 09:42:39;;;;;;;2.70;1.63;;;;;;;;;;5052579;28;20431;-81
2023/08/14 09:45:05;;;;;;;3.70;1.40;;;;;;;;;;5053962;28;20405;-81
2023/08/14 09:47:31;;;;;;;3.47;1.80;;;;;;;;;;5051476;28;20408;-81
2023/08/14 09:49:57;;;;;;;4.13;1.63;;;;;;;;;;5053935;28;20909;-81
2023/08/14 09:52:26;;;;;;;3.10;1.37;;;;;;;;;;5053913;28;20467;-81
2023/08/14 09:54:54;;;;;;;4.77;1.80;;;;;;;;;;5050859;28;20207;-81
2023/08/14 09:57:22;;;;;;;4.10;1.50;;;;;;;;;;5053805;28;20406;-81
2023/08/14 09:59:48;;;;;;;3.63;1.50;;;;;;;;;;5053609;28;20428;-81
2023/08/14 10:02:16;;;;;;;5.23;2.00;;;;;;;;;;5053442;28;20952;-81
2023/08/14 10:04:44;;;;;;;3.90;1.73;;;;;;;;;;5053714;28;20181;-81
2023/08/14 10:07:10;;;;;;;2.83;1.80;;;;;;;;;;5052298;28;20404;-82
2023/08/14 10:09:38;;;;;;;2.83;1.50;;;;;;;;;;5053267;28;20422;-81
2023/08/14 10:12:08;;;;;;;3.23;1.67;;;;;;;;;;5053572;28;20416;-81
2023/08/14 10:14:36;;;;;;;3.10;1.70;;;;;;;;;;5051228;28;20467;-81
2023/08/14 10:17:04;;;;;;;2.83;1.90;;;;;;;;;;5053366;28;20973;-81
2023/08/14 10:19:32;;;;;;;3.90;1.30;;;;;;;;;;5053377;28;20925;-81
2023/08/14 10:21:58;;;;;;;2.93;1.57;;;;;;;;;;5052093;28;20420;-81
2023/08/14 10:24:27;;;;;;;2.23;1.70;;;;;;;;;;5052984;28;20408;-81
2023/08/14 10:26:56;;;;;;;5.83;1.97;;;;;;;;;;5051530;28;20461;-81
2023/08/14 10:29:23;;;;;;;3.73;1.23;;;;;;;;;;5053224;28;20408;-81
2023/08/14 10:31:49;;;;;;;3.00;2.17;;;;;;;;;;5053337;28;20470;-81
2023/08/14 10:34:16;;;;;;;4.03;2.10;;;;;;;;;;5053432;28;20502;-81
2023/08/14 10:36:42;;;;;;;3.60;2.17;;;;;;;;;;5053662;28;20901;-81
2023/08/14 10:39:09;;;;;;;4.50;2.60;;;;;;;;;;5053396;28;20408;-81
2023/08/14 10:41:35;;;;;;;4.83;2.10;;;;;;;;;;5053446;28;20201;-81
2023/08/14 10:44:06;;;;;;;5.23;1.80;;;;;;;;;;5053375;28;20436;-80
2023/08/14 10:46:34;;;;;;;4.13;1.60;;;;;;;;;;5053375;28;20412;-81
2023/08/14 10:49:00;;;;;;;5.83;1.93;;;;;;;;;;5046840;28;20455;-81
2023/08/14 10:51:30;;;;;;;2.57;1.77;;;;;;;;;;5038624;28;20417;-81
2023/08/14 10:54:08;;;;;;;5.40;2.00;;;;;;;;;;5031618;28;20781;-81
2023/08/14 10:56:45;;;;;;;2.87;1.20;;;;;;;;;;5033374;28;20489;-82
2023/08/14 10:59:19;;;;;;;5.60;2.07;;;;;;;;;;5033282;28;20408;-81
2023/08/14 11:01:49;;;;;;;3.70;1.80;;;;;;;;;;5033033;28;20583;-82
2023/08/14 11:04:15;;;;;;;3.17;1.90;;;;;;;;;;5033230;28;20508;-81
2023/08/14 11:06:58;;;;;;;4.07;2.20;;;;;;;;;;5033095;28;20488;-81
2023/08/14 11:09:34;;;;;;;6.60;1.80;;;;;;;;;;5032747;28;20179;-81
2023/08/14 11:12:07;;;;;;;4.07;1.97;;;;;;;;;;5033024;28;20417;-81
2023/08/14 11:14:41;;;;;;;3.57;2.07;;;;;;;;;;5032988;28;20459;-81
2023/08/14 11:17:08;;;;;;;6.90;1.87;;;;;;;;;;5033122;28;20440;-82
2023/08/14 11:19:35;;;;;;;3.87;2.63;;;;;;;;;;5033042;28;20405;-81
2023/08/14 11:22:00;;;;;;;3.43;1.17;;;;;;;;;;5032942;28;20507;-82
2023/08/14 11:24:26;;;;;;;4.60;2.00;;;;;;;;;;5032624;28;20420;-82
2023/08/14 11:26:53;;;;;;;2.03;0.80;;;;;;;;;;5032766;28;20213;-81
2023/08/14 11:29:19;;;;;;;2.87;1.77;;;;;;;;;;5032631;28;20632;-81
2023/08/14 11:31:45;;;;;;;3.07;1.90;;;;;;;;;;5032865;28;20784;-82
2023/08/14 11:34:11;;;;;;;3.00;1.83;;;;;;;;;;5032664;28;20944;-82
2023/08/14 11:36:52;;;;;;;2.13;1.50;;;;;;;;;;5032734;28;20420;-82
2023/08/14 11:39:18;;;;;;;4.37;1.97;;;;;;;;;;5032434;28;20174;-81
2023/08/14 11:41:44;;;;;;;4.33;1.27;;;;;;;;;;5031397;28;20579;-81
2023/08/14 11:44:09;;;;;;;3.80;1.60;;;;;;;;;;5032702;28;20174;-81
2023/08/14 11:46:35;;;;;;;3.17;1.63;;;;;;;;;;5032698;28;20182;-81
2023/08/14 11:49:01;;;;;;;2.20;0.97;;;;;;;;;;5032627;28;20175;-81
2023/08/14 11:51:29;;;;;;;2.90;1.50;;;;;;;;;;5032744;28;20205;-81
2023/08/14 11:53:55;;;;;;;3.07;1.53;;;;;;;;;;5032269;28;20178;-81
2023/08/14 11:56:21;;;;;;;4.90;2.10;;;;;;;;;;5032604;28;20429;-81
2023/08/14 11:58:47;;;;;;;2.07;1.20;;;;;;;;;;5039514;28;20420;-82
2023/08/14 12:01:14;;;;;;;6.20;1.83;;;;;;;;;;5052057;28;20970;-81
2023/08/14 12:03:41;;;;;;;3.10;1.30;;;;;;;;;;5049282;28;20808;-81
2023/08/14 12:06:07;;;;;;;2.97;1.60;;;;;;;;;;5052248;28;20423;-82
2023/08/14 12:08:33;;;;;;;4.53;1.87;;;;;;;;;;5052173;28;20408;-81
2023/08/14 12:10:59;;;;;;;4.40;1.93;;;;;;;;;;5052429;28;20677;-81
2023/08/14 12:13:25;;;;;;;2.03;1.30;;;;;;;;;;5052421;28;20418;-81
2023/08/14 12:15:51;;;;;;;5.23;1.70;;;;;;;;;;5052363;28;20970;-83
2023/08/14 12:18:21;;;;;;;3.97;1.50;;;;;;;;;;5052404;28;20411;-81
2023/08/14 12:20:54;;;;;;;2.73;1.40;;;;;;;;;;5052377;28;20166;-82
2023/08/14 12:23:24;;;;;;;2.30;1.27;;;;;;;;;;5052014;28;20412;-82
2023/08/14 12:25:50;;;;;;;2.13;1.10;;;;;;;;;;5052289;28;20408;-82
2023/08/14 12:28:16;;;;;;;3.53;1.10;;;;;;;;;;5052272;28;20430;-82
2023/08/14 12:30:44;;;;;;;4.17;1.30;;;;;;;;;;5052199;28;20419;-82
2023/08/14 12:33:10;;;;;;;4.80;1.83;;;;;;;;;;5052310;28;20474;-82
2023/08/14 12:35:36;;;;;;;2.97;1.63;;;;;;;;;;5045185;28;20503;-82
2023/08/14 12:38:02;;;;;;;3.20;1.87;;;;;;;;;;5038225;28;20248;-82
2023/08/14 12:40:28;;;;;;;1.87;1.33;;;;;;;;;;5034214;28;20402;-82
2023/08/14 12:42:54;;;;;;;2.30;1.43;;;;;;;;;;5035873;28;20531;-82
2023/08/14 12:45:20;;;;;;;2.70;1.83;;;;;;;;;;5056945;28;20177;-82
2023/08/14 12:47:46;;;;;;;3.10;1.40;;;;;;;;;;5048491;28;20277;-82
2023/08/14 12:50:12;;;;;;;4.00;1.40;;;;;;;;;;5040172;28;20650;-82
2023/08/14 12:52:38;;;;;;;2.67;1.50;;;;;;;;;;5035665;28;20666;-82
2023/08/14 12:55:04;;;;;;;4.10;1.97;;;;;;;;;;5035162;28;20468;-82
2023/08/14 12:57:30;;;;;;;3.47;1.73;;;;;;;;;;5035628;28;20166;-82
2023/08/14 12:59:56;;;;;;;4.63;1.43;;;;;;;;;;5035432;28;20478;-82
2023/08/14 13:02:23;;;;;;;3.30;1.83;;;;;;;;;;5035255;28;20467;-82
2023/08/14 13:04:49;;;;;;;3.70;1.60;;;;;;;;;;5035203;28;20174;-81
2023/08/14 13:07:15;;;;;;;4.53;1.60;;;;;;;;;;5051519;28;20473;-81
2023/08/14 13:09:41;;;;;;;2.30;1.70;;;;;;;;;;5053878;28;20181;-81
2023/08/14 13:12:07;;;;;;;3.27;2.00;;;;;;;;;;5054714;28;20248;-81
2023/08/14 13:14:33;;;;;;;5.27;1.80;;;;;;;;;;5051919;28;20201;-81
2023/08/14 13:16:59;;;;;;;2.03;1.10;;;;;;;;;;5054629;28;20400;-81
2023/08/14 13:19:25;;;;;;;2.73;1.40;;;;;;;;;;5053518;28;20176;-81
2023/08/14 13:21:51;;;;;;;2.53;1.60;;;;;;;;;;5047442;28;20641;-81
2023/08/14 13:24:17;;;;;;;3.83;1.70;;;;;;;;;;5050477;28;20184;-81
2023/08/14 13:26:43;;;;;;;2.20;1.57;;;;;;;;;;5046675;28;20669;-81
2023/08/14 13:29:08;;;;;;;7.33;1.80;;;;;;;;;;5049776;28;20188;-81
2023/08/14 13:31:34;;;;;;;2.80;1.80;;;;;;;;;;5049834;28;20250;-81
2023/08/14 13:34:00;;;;;;;2.37;1.73;;;;;;;;;;5051541;28;20251;-81
2023/08/14 13:36:26;;;;;;;2.33;1.73;;;;;;;;;;5054241;28;20180;-82
2023/08/14 13:38:52;;;;;;;2.57;1.53;;;;;;;;;;5051525;28;20562;-81
2023/08/14 13:41:18;;;;;;;2.50;1.87;;;;;;;;;;5054104;28;20181;-81
2023/08/14 13:43:44;;;;;;;4.77;1.87;;;;;;;;;;5050086;28;20178;-82
2023/08/14 13:46:10;;;;;;;2.60;1.70;;;;;;;;;;5048125;28;20173;-86
2023/08/14 13:48:38;;;;;;;2.80;1.50;;;;;;;;;;5051515;28;20201;-86
2023/08/14 13:51:04;;;;;;;2.87;1.57;;;;;;;;;;5050967;28;20170;-85
2023/08/14 13:53:30;;;;;;;3.43;2.00;;;;;;;;;;5051091;28;20420;-86
2023/08/14 13:55:56;;;;;;;4.37;1.47;;;;;;;;;;5053873;28;20264;-85
2023/08/14 13:58:22;;;;;;;2.67;1.20;;;;;;;;;;5053886;28;20170;-85
2023/08/14 14:00:48;;;;;;;3.03;1.60;;;;;;;;;;5049792;28;20181;-84
2023/08/14 14:03:14;;;;;;;2.83;1.70;;;;;;;;;;5048082;28;20580;-84
2023/08/14 14:05:42;;;;;;;2.60;1.97;;;;;;;;;;5050872;28;20186;-85
2023/08/14 14:08:08;;;;;;;2.00;1.57;;;;;;;;;;5048177;28;20182;-85
2023/08/14 14:10:34;;;;;;;3.17;1.47;;;;;;;;;;5050916;28;20419;-85
2023/08/14 14:13:01;;;;;;;4.20;1.70;;;;;;;;;;5052213;28;20528;-85
2023/08/14 14:15:27;;;;;;;2.67;1.40;;;;;;;;;;5052228;28;20768;-85
2023/08/14 14:17:53;;;;;;;2.40;1.50;;;;;;;;;;5053456;28;20491;-85
2023/08/14 14:20:19;;;;;;;3.83;1.40;;;;;;;;;;5053450;28;20180;-85
2023/08/14 14:22:45;;;;;;;3.40;1.90;;;;;;;;;;5050747;28;20251;-85
2023/08/14 14:25:12;;;;;;;5.77;2.60;;;;;;;;;;5047598;28;20936;-85
2023/08/14 14:27:38;;;;;;;4.50;1.90;;;;;;;;;;5050038;28;20234;-84
2023/08/14 14:30:08;;;;;;;2.93;1.90;;;;;;;;;;5050789;28;20419;-84
2023/08/14 14:32:36;;;;;;;2.73;1.53;;;;;;;;;;5050876;28;20415;-84
2023/08/14 14:35:02;;;;;;;4.43;1.87;;;;;;;;;;5053164;28;20921;-85
2023/08/14 14:37:31;;;;;;;6.13;2.00;;;;;;;;;;5051785;28;20416;-85
2023/08/14 14:39:57;;;;;;;2.90;1.80;;;;;;;;;;5052594;28;20412;-85
2023/08/14 14:42:26;;;;;;;2.50;1.57;;;;;;;;;;5052975;28;20436;-84